createdAt,value
2023-03-11T00:00:14.103Z,2.20
2023-03-11T00:02:41.175Z,2.20
2023-03-11T00:05:09.424Z,2.30
2023-03-11T00:07:37.994Z,2.20
2023-03-11T00:10:05.341Z,2.20
2023-03-11T00:12:32.341Z,2.20
2023-03-11T00:14:59.015Z,2.20
2023-03-11T00:17:25.830Z,2.20
2023-03-11T00:19:54.064Z,2.10
2023-03-11T00:22:20.690Z,2.20
2023-03-11T00:24:47.907Z,2.20
2023-03-11T00:27:17.637Z,2.20
2023-03-11T00:29:44.698Z,2.10
2023-03-11T00:32:12.057Z,2.10
2023-03-11T00:34:38.912Z,2.10
2023-03-11T00:37:05.614Z,2.10
2023-03-11T00:39:32.719Z,2.10
2023-03-11T00:41:59.828Z,2.20
2023-03-11T00:44:26.516Z,2.30
2023-03-11T00:46:53.823Z,2.20
2023-03-11T00:49:21.496Z,2.20
2023-03-11T00:51:48.174Z,2.30
2023-03-11T00:54:15.041Z,2.30
2023-03-11T00:56:41.825Z,2.20
2023-03-11T00:59:08.847Z,2.20
2023-03-11T01:01:35.595Z,2.10
2023-03-11T01:04:02.478Z,2.10
2023-03-11T01:06:39.186Z,2.10
2023-03-11T01:09:11.377Z,2.00
2023-03-11T01:11:38.316Z,2.10
2023-03-11T01:14:04.995Z,2.00
2023-03-11T01:16:31.783Z,2.00
2023-03-11T01:18:58.525Z,2.00
2023-03-11T01:21:25.327Z,2.00
2023-03-11T01:23:52.189Z,1.90
2023-03-11T01:26:18.898Z,1.90
2023-03-11T01:28:45.577Z,1.90
2023-03-11T01:31:12.911Z,1.80
2023-03-11T01:33:40.350Z,1.70
2023-03-11T01:36:07.499Z,1.70
2023-03-11T01:38:35.818Z,1.70
2023-03-11T01:41:02.939Z,1.70
2023-03-11T01:43:56.454Z,1.70
2023-03-11T01:46:54.582Z,1.60
2023-03-11T01:49:22.507Z,1.60
2023-03-11T01:51:52.309Z,1.60
2023-03-11T01:54:23.340Z,1.50
2023-03-11T01:56:51.640Z,1.50
2023-03-11T01:59:22.582Z,1.50
2023-03-11T02:01:58.730Z,1.40
2023-03-11T02:04:27.489Z,1.50
2023-03-11T02:06:55.964Z,1.40
2023-03-11T02:09:24.116Z,1.40
2023-03-11T02:11:52.227Z,1.40
2023-03-11T02:14:19.424Z,1.50
2023-03-11T02:16:46.328Z,1.50
2023-03-11T02:19:41.522Z,1.40
2023-03-11T02:22:10.321Z,1.40
2023-03-11T02:25:03.636Z,1.40
2023-03-11T02:27:33.437Z,1.40
2023-03-11T02:30:01.515Z,1.50
2023-03-11T02:32:28.903Z,1.40
2023-03-11T02:34:55.662Z,1.40
2023-03-11T02:37:22.671Z,1.50
2023-03-11T02:39:52.175Z,1.50
2023-03-11T02:42:29.271Z,1.50
2023-03-11T02:45:01.307Z,1.50
2023-03-11T02:47:28.311Z,1.50
2023-03-11T02:49:56.949Z,1.60
2023-03-11T02:52:27.778Z,1.50
2023-03-11T02:54:54.927Z,1.50
2023-03-11T02:57:22.027Z,1.50
2023-03-11T02:59:49.747Z,1.50
2023-03-11T03:02:17.170Z,1.50
2023-03-11T03:04:44.863Z,1.50
2023-03-11T03:07:12.075Z,1.50
2023-03-11T03:09:38.926Z,1.50
2023-03-11T03:12:06.367Z,1.50
2023-03-11T03:14:33.738Z,1.50
2023-03-11T03:17:01.040Z,1.50
2023-03-11T03:19:28.425Z,1.50
2023-03-11T03:21:55.801Z,1.40
2023-03-11T03:24:22.733Z,1.30
2023-03-11T03:26:49.591Z,1.40
2023-03-11T03:29:16.582Z,1.50
2023-03-11T03:31:43.603Z,1.60
2023-03-11T03:34:11.145Z,1.50
2023-03-11T03:36:38.150Z,1.50
2023-03-11T03:39:05.780Z,1.40
2023-03-11T03:41:32.907Z,1.40
2023-03-11T03:43:59.849Z,1.40
2023-03-11T03:46:26.758Z,1.30
2023-03-11T03:48:54.873Z,1.30
2023-03-11T03:51:21.808Z,1.20
2023-03-11T03:53:48.734Z,1.30
2023-03-11T03:56:17.673Z,1.30
2023-03-11T03:58:46.158Z,1.20
2023-03-11T04:01:13.757Z,1.20
2023-03-11T04:03:40.937Z,1.20
2023-03-11T04:06:17.432Z,1.10
2023-03-11T04:08:44.712Z,1.10
2023-03-11T04:11:12.514Z,1.00
2023-03-11T04:13:39.728Z,1.00
2023-03-11T04:16:08.016Z,1.10
2023-03-11T04:18:35.555Z,1.00
2023-03-11T04:21:07.138Z,1.00
2023-03-11T04:23:34.596Z,1.00
2023-03-11T04:26:01.781Z,1.00
2023-03-11T04:28:28.774Z,1.00
2023-03-11T04:30:55.900Z,1.10
2023-03-11T04:33:22.957Z,1.10
2023-03-11T04:35:50.049Z,1.10
2023-03-11T04:38:17.919Z,1.10
2023-03-11T04:40:44.852Z,1.10
2023-03-11T04:43:11.862Z,1.00
2023-03-11T04:45:40.250Z,1.10
2023-03-11T04:48:07.503Z,1.00
2023-03-11T04:50:35.078Z,1.00
2023-03-11T04:53:02.142Z,1.10
2023-03-11T04:55:29.085Z,1.10
2023-03-11T04:57:56.010Z,1.10
2023-03-11T05:00:25.015Z,1.10
2023-03-11T05:02:52.537Z,1.10
2023-03-11T05:05:20.418Z,1.10
2023-03-11T05:07:48.292Z,1.00
2023-03-11T05:10:22.213Z,1.00
2023-03-11T05:12:50.667Z,1.00
2023-03-11T05:15:18.206Z,1.10
2023-03-11T05:17:46.092Z,1.10
2023-03-11T05:20:15.628Z,1.10
2023-03-11T05:22:42.906Z,1.00
2023-03-11T05:25:10.350Z,1.00
2023-03-11T05:27:37.208Z,1.00
2023-03-11T05:30:04.945Z,1.00
2023-03-11T05:32:31.843Z,0.90
2023-03-11T05:34:58.858Z,0.80
2023-03-11T05:37:25.803Z,0.80
2023-03-11T05:39:53.102Z,0.70
2023-03-11T05:42:21.496Z,0.70
2023-03-11T05:44:48.825Z,0.70
2023-03-11T05:47:17.811Z,0.60
2023-03-11T05:49:46.827Z,0.60
2023-03-11T05:52:13.826Z,0.60
2023-03-11T05:54:40.822Z,0.60
2023-03-11T05:57:07.657Z,0.50
2023-03-11T05:59:35.696Z,0.50
2023-03-11T06:02:02.653Z,0.50
2023-03-11T06:04:30.009Z,0.40
2023-03-11T06:06:57.081Z,0.40
2023-03-11T06:09:24.129Z,0.40
2023-03-11T06:11:51.068Z,0.30
2023-03-11T06:14:18.600Z,0.30
2023-03-11T06:16:46.066Z,0.20
2023-03-11T06:19:13.330Z,0.20
2023-03-11T06:21:40.548Z,0.10
2023-03-11T06:24:09.638Z,0.10
2023-03-11T06:26:36.508Z,0.10
2023-03-11T06:29:03.524Z,0.10
2023-03-11T06:31:31.990Z,0.10
2023-03-11T06:33:59.494Z,0.20
2023-03-11T06:36:26.450Z,0.20
2023-03-11T06:38:54.644Z,0.30
2023-03-11T06:41:21.731Z,0.30
2023-03-11T06:43:48.729Z,0.30
2023-03-11T06:46:18.336Z,0.40
2023-03-11T06:48:46.586Z,0.40
2023-03-11T06:51:13.938Z,0.40
2023-03-11T06:53:40.880Z,0.40
2023-03-11T06:56:12.754Z,0.50
2023-03-11T06:58:41.692Z,0.50
2023-03-11T07:01:28.192Z,0.60
2023-03-11T07:03:55.132Z,0.70
2023-03-11T07:06:26.083Z,0.80
2023-03-11T07:08:53.588Z,0.80
2023-03-11T07:11:24.333Z,0.80
2023-03-11T07:13:52.234Z,0.90
2023-03-11T07:16:22.540Z,1.00
2023-03-11T07:18:50.972Z,1.00
2023-03-11T07:21:20.417Z,1.10
2023-03-11T07:23:49.294Z,1.20
2023-03-11T07:26:17.890Z,1.30
2023-03-11T07:28:45.236Z,1.30
2023-03-11T07:31:33.750Z,1.30
2023-03-11T07:34:03.698Z,1.40
2023-03-11T07:36:31.476Z,1.50
2023-03-11T07:39:05.071Z,1.60
2023-03-11T07:41:34.378Z,1.60
2023-03-11T07:44:02.498Z,1.60
2023-03-11T07:46:30.548Z,1.70
2023-03-11T07:48:57.552Z,1.70
2023-03-11T07:51:28.022Z,1.80
2023-03-11T07:53:56.337Z,1.90
2023-03-11T07:56:25.423Z,2.00
2023-03-11T07:58:53.161Z,2.00
2023-03-11T08:01:23.401Z,2.20
2023-03-11T08:03:56.971Z,2.20
2023-03-11T08:06:27.141Z,2.30
2023-03-11T08:08:54.166Z,2.40
2023-03-11T08:11:21.469Z,2.50
2023-03-11T08:13:49.840Z,2.60
2023-03-11T08:16:19.513Z,2.60
2023-03-11T08:18:48.204Z,2.70
2023-03-11T08:21:24.174Z,2.70
2023-03-11T08:23:52.088Z,2.70
2023-03-11T08:26:21.868Z,2.80
2023-03-11T08:28:49.973Z,2.90
2023-03-11T08:31:19.640Z,3.00
2023-03-11T08:33:49.936Z,3.10
2023-03-11T08:36:18.191Z,3.20
2023-03-11T08:38:45.535Z,3.20
2023-03-11T08:41:12.612Z,3.30
2023-03-11T08:43:39.817Z,3.40
2023-03-11T08:46:07.189Z,3.60
2023-03-11T08:48:36.312Z,3.70
2023-03-11T08:51:09.127Z,3.80
2023-03-11T08:53:37.703Z,3.80
2023-03-11T08:56:05.902Z,3.90
2023-03-11T08:58:35.300Z,4.10
2023-03-11T09:01:02.611Z,4.10
2023-03-11T09:03:32.826Z,4.20
2023-03-11T09:06:01.928Z,4.30
2023-03-11T09:08:29.472Z,4.30
2023-03-11T09:10:56.437Z,4.50
2023-03-11T09:13:23.888Z,4.60
2023-03-11T09:15:51.818Z,4.60
2023-03-11T09:18:20.253Z,4.60
2023-03-11T09:20:47.224Z,4.80
2023-03-11T09:23:16.132Z,4.90
2023-03-11T09:25:43.113Z,5.00
2023-03-11T09:28:10.066Z,5.20
2023-03-11T09:30:37.013Z,5.20
2023-03-11T09:33:03.941Z,5.20
2023-03-11T09:35:31.052Z,5.30
2023-03-11T09:37:57.906Z,5.50
2023-03-11T09:40:27.149Z,5.50
2023-03-11T09:43:03.107Z,5.70
2023-03-11T09:45:38.617Z,5.70
2023-03-11T09:48:18.249Z,5.70
2023-03-11T09:50:45.176Z,5.80
2023-03-11T09:53:18.978Z,5.80
2023-03-11T09:55:45.965Z,5.70
2023-03-11T09:58:27.663Z,5.90
2023-03-11T10:00:55.166Z,6.00
2023-03-11T10:03:39.382Z,6.20
2023-03-11T10:06:12.794Z,6.20
2023-03-11T10:08:45.682Z,6.40
2023-03-11T10:11:32.729Z,6.60
2023-03-11T10:14:15.939Z,6.80
2023-03-11T10:16:50.120Z,6.80
2023-03-11T10:19:38.020Z,6.90
2023-03-11T10:22:19.772Z,6.90
2023-03-11T10:25:02.521Z,7.10
2023-03-11T10:27:55.801Z,6.90
2023-03-11T10:30:43.615Z,6.70
2023-03-11T10:33:49.980Z,6.40
2023-03-11T10:36:24.278Z,6.40
2023-03-11T10:38:53.352Z,6.50
2023-03-11T10:41:42.110Z,6.70
2023-03-11T10:44:30.969Z,6.90
2023-03-11T10:46:57.598Z,7.20
2023-03-11T10:49:24.894Z,7.30
2023-03-11T10:51:53.398Z,7.50
2023-03-11T10:54:32.779Z,7.40
2023-03-11T10:57:01.870Z,7.50
2023-03-11T10:59:58.953Z,7.60
2023-03-11T11:02:51.789Z,7.60
2023-03-11T11:05:18.695Z,7.70
2023-03-11T11:07:46.743Z,7.90
2023-03-11T11:10:17.312Z,8.20
2023-03-11T11:12:59.404Z,8.50
2023-03-11T11:15:34.051Z,8.80
2023-03-11T11:18:05.248Z,9.00
2023-03-11T11:20:34.134Z,8.80
2023-03-11T11:23:03.697Z,8.80
2023-03-11T11:25:38.555Z,8.90
2023-03-11T11:28:19.675Z,8.90
2023-03-11T11:31:18.807Z,8.90
2023-03-11T11:33:51.320Z,8.80
2023-03-11T11:36:19.118Z,8.60
2023-03-11T11:38:45.837Z,8.40
2023-03-11T11:41:20.506Z,8.40
2023-03-11T11:43:58.927Z,8.40
2023-03-11T11:46:37.541Z,8.50
2023-03-11T11:49:25.576Z,8.50
2023-03-11T11:52:12.528Z,8.60
2023-03-11T11:54:50.344Z,8.80
2023-03-11T11:57:20.388Z,8.90
2023-03-11T11:59:47.593Z,9.00
2023-03-11T12:02:23.269Z,9.30
2023-03-11T12:04:56.185Z,9.30
2023-03-11T12:07:49.706Z,9.40
2023-03-11T12:10:54.249Z,9.50
2023-03-11T12:13:55.642Z,9.70
2023-03-11T12:16:57.157Z,10.10
2023-03-11T12:19:33.680Z,10.00
2023-03-11T12:22:16.862Z,9.80
2023-03-11T12:25:11.569Z,9.70
2023-03-11T12:28:26.326Z,9.80
2023-03-11T12:30:56.488Z,9.80
2023-03-11T12:33:48.813Z,9.90
2023-03-11T12:36:34.873Z,10.20
2023-03-11T12:39:05.930Z,10.20
2023-03-11T12:41:36.770Z,10.30
2023-03-11T12:44:23.145Z,10.20
2023-03-11T12:47:01.639Z,10.20
2023-03-11T12:49:34.071Z,10.20
2023-03-11T12:52:06.923Z,10.10
2023-03-11T12:54:36.189Z,9.90
2023-03-11T12:57:16.188Z,9.90
2023-03-11T13:00:22.952Z,10.00
2023-03-11T13:03:11.374Z,10.00
2023-03-11T13:06:04.036Z,10.10
2023-03-11T13:08:49.840Z,10.10
2023-03-11T13:11:49.882Z,10.10
2023-03-11T13:14:32.866Z,10.10
2023-03-11T13:17:26.358Z,10.10
2023-03-11T13:19:56.577Z,9.80
2023-03-11T13:22:52.667Z,9.80
2023-03-11T13:25:30.050Z,9.70
2023-03-11T13:28:11.727Z,9.90
2023-03-11T13:30:45.567Z,10.20
2023-03-11T13:33:48.836Z,10.30
2023-03-11T13:36:29.724Z,10.20
2023-03-11T13:39:20.409Z,10.30
2023-03-11T13:41:48.039Z,10.40
2023-03-11T13:44:26.729Z,10.20
2023-03-11T13:47:00.073Z,10.00
2023-03-11T13:49:40.062Z,9.90
2023-03-11T13:52:13.474Z,9.90
2023-03-11T13:54:55.552Z,9.90
2023-03-11T13:57:36.925Z,10.00
2023-03-11T14:00:17.821Z,10.10
2023-03-11T14:02:54.274Z,10.20
2023-03-11T14:05:35.716Z,10.40
2023-03-11T14:08:37.958Z,10.20
2023-03-11T14:11:10.826Z,10.20
2023-03-11T14:13:43.100Z,10.20
2023-03-11T14:16:13.614Z,10.20
2023-03-11T14:18:42.224Z,10.20
2023-03-11T14:21:20.432Z,10.30
2023-03-11T14:23:53.090Z,10.30
2023-03-11T14:26:26.512Z,10.20
2023-03-11T14:28:57.054Z,10.10
2023-03-11T14:31:31.607Z,10.10
2023-03-11T14:34:04.303Z,10.00
2023-03-11T14:36:40.459Z,10.10
2023-03-11T14:39:26.556Z,9.90
2023-03-11T14:42:01.925Z,9.80
2023-03-11T14:44:30.913Z,9.80
2023-03-11T14:47:09.441Z,9.80
2023-03-11T14:49:37.430Z,10.00
2023-03-11T14:52:15.118Z,9.80
2023-03-11T14:54:42.797Z,9.60
2023-03-11T14:57:37.444Z,9.50
2023-03-11T15:00:10.097Z,9.60
2023-03-11T15:02:45.478Z,9.50
2023-03-11T15:05:27.050Z,9.50
2023-03-11T15:08:00.428Z,9.30
2023-03-11T15:10:27.616Z,9.20
2023-03-11T15:13:15.333Z,9.00
2023-03-11T15:15:42.272Z,9.00
2023-03-11T15:18:25.315Z,9.10
2023-03-11T15:21:13.621Z,9.20
2023-03-11T15:23:50.107Z,8.90
2023-03-11T15:26:32.172Z,8.70
2023-03-11T15:29:15.868Z,8.60
2023-03-11T15:31:46.817Z,8.60
2023-03-11T15:34:16.820Z,8.70
2023-03-11T15:36:49.664Z,8.80
2023-03-11T15:39:20.665Z,8.70
2023-03-11T15:42:13.666Z,8.70
2023-03-11T15:44:50.055Z,8.70
2023-03-11T15:47:20.121Z,8.70
2023-03-11T15:49:47.760Z,8.70
2023-03-11T15:52:15.371Z,8.80
2023-03-11T15:54:45.695Z,8.80
2023-03-11T15:57:26.271Z,8.80
2023-03-11T15:59:56.433Z,8.70
2023-03-11T16:02:26.211Z,8.70
2023-03-11T16:04:53.832Z,8.70
2023-03-11T16:07:36.516Z,8.60
2023-03-11T16:10:06.133Z,8.50
2023-03-11T16:12:33.584Z,8.50
2023-03-11T16:15:00.576Z,8.40
2023-03-11T16:17:39.493Z,8.40
2023-03-11T16:20:14.020Z,8.30
2023-03-11T16:22:41.182Z,8.20
2023-03-11T16:25:18.565Z,8.10
2023-03-11T16:27:45.931Z,8.00
2023-03-11T16:30:16.607Z,7.80
2023-03-11T16:32:43.725Z,7.80
2023-03-11T16:35:11.867Z,7.80
2023-03-11T16:37:39.908Z,7.70
2023-03-11T16:40:07.275Z,7.60
2023-03-11T16:42:34.176Z,7.60
2023-03-11T16:45:03.497Z,7.50
2023-03-11T16:47:30.837Z,7.60
2023-03-11T16:49:57.717Z,7.50
2023-03-11T16:52:24.663Z,7.50
2023-03-11T16:54:52.001Z,7.50
2023-03-11T16:57:18.898Z,7.50
2023-03-11T16:59:46.454Z,7.50
2023-03-11T17:02:13.384Z,7.40
2023-03-11T17:04:40.536Z,7.40
2023-03-11T17:07:08.469Z,7.20
2023-03-11T17:09:37.695Z,7.10
2023-03-11T17:12:06.196Z,6.90
2023-03-11T17:14:33.115Z,6.90
2023-03-11T17:17:00.194Z,6.90
2023-03-11T17:19:27.445Z,6.70
2023-03-11T17:21:54.436Z,6.60
2023-03-11T17:24:21.306Z,6.50
2023-03-11T17:26:48.172Z,6.40
2023-03-11T17:29:16.568Z,6.40
2023-03-11T17:31:46.140Z,6.30
2023-03-11T17:34:14.594Z,6.10
2023-03-11T17:36:41.523Z,6.00
2023-03-11T17:39:08.572Z,5.90
2023-03-11T17:41:37.519Z,5.80
2023-03-11T17:44:04.688Z,5.60
2023-03-11T17:46:31.674Z,5.40
2023-03-11T17:48:58.718Z,5.30
2023-03-11T17:51:26.463Z,5.20
2023-03-11T17:53:54.914Z,5.00
2023-03-11T17:56:22.551Z,4.90
2023-03-11T17:58:50.544Z,4.60
2023-03-11T18:01:23.381Z,4.50
2023-03-11T18:03:51.035Z,4.30
2023-03-11T18:06:19.933Z,4.30
2023-03-11T18:08:46.828Z,4.20
2023-03-11T18:11:18.945Z,4.00
2023-03-11T18:13:46.764Z,3.90
2023-03-11T18:16:16.647Z,3.80
2023-03-11T18:18:44.234Z,3.80
2023-03-11T18:21:16.486Z,3.70
2023-03-11T18:23:44.058Z,3.50
2023-03-11T18:26:14.075Z,3.50
2023-03-11T18:28:41.786Z,3.40
2023-03-11T18:31:18.022Z,3.30
2023-03-11T18:33:56.540Z,3.20
2023-03-11T18:36:31.978Z,3.20
2023-03-11T18:39:00.559Z,3.10
2023-03-11T18:41:30.973Z,3.00
2023-03-11T18:43:58.768Z,3.00
2023-03-11T18:46:28.607Z,2.90
2023-03-11T18:48:59.868Z,2.80
2023-03-11T18:51:28.576Z,2.80
2023-03-11T18:53:55.626Z,2.70
2023-03-11T18:56:22.512Z,2.60
2023-03-11T18:58:50.136Z,2.50
2023-03-11T19:01:19.637Z,2.40
2023-03-11T19:03:57.646Z,2.40
2023-03-11T19:06:29.504Z,2.30
2023-03-11T19:09:00.824Z,2.20
2023-03-11T19:11:27.913Z,2.20
2023-03-11T19:13:55.402Z,2.10
2023-03-11T19:16:24.503Z,2.10
2023-03-11T19:18:53.832Z,2.00
2023-03-11T19:21:20.908Z,2.00
2023-03-11T19:23:51.539Z,1.90
2023-03-11T19:26:18.459Z,1.90
2023-03-11T19:28:45.247Z,1.80
2023-03-11T19:31:12.438Z,1.80
2023-03-11T19:33:39.902Z,1.70
2023-03-11T19:36:07.543Z,1.60
2023-03-11T19:38:35.290Z,1.60
2023-03-11T19:41:14.552Z,1.60
2023-03-11T19:43:42.197Z,1.50
2023-03-11T19:46:12.379Z,1.50
2023-03-11T19:48:39.464Z,1.60
2023-03-11T19:51:06.987Z,1.60
2023-03-11T19:53:35.958Z,1.60
2023-03-11T19:56:04.795Z,1.70
2023-03-11T19:58:32.563Z,1.60
2023-03-11T20:01:01.073Z,1.70
2023-03-11T20:03:29.482Z,1.70
2023-03-11T20:05:58.117Z,1.70
2023-03-11T20:08:25.690Z,1.70
2023-03-11T20:10:53.754Z,1.70
2023-03-11T20:13:22.917Z,1.70
2023-03-11T20:15:50.332Z,1.70
2023-03-11T20:18:18.208Z,1.70
2023-03-11T20:20:45.780Z,1.70
2023-03-11T20:23:13.058Z,1.70
2023-03-11T20:25:41.087Z,1.70
2023-03-11T20:28:08.647Z,1.70
2023-03-11T20:30:38.429Z,1.60
2023-03-11T20:33:06.029Z,1.60
2023-03-11T20:35:33.571Z,1.60
2023-03-11T20:38:00.677Z,1.60
2023-03-11T20:40:27.577Z,1.60
2023-03-11T20:42:54.491Z,1.60
2023-03-11T20:45:22.038Z,1.60
2023-03-11T20:47:50.724Z,1.60
2023-03-11T20:50:18.093Z,1.50
2023-03-11T20:52:44.971Z,1.50
2023-03-11T20:55:12.751Z,1.50
2023-03-11T20:57:40.615Z,1.50
2023-03-11T21:00:12.088Z,1.50
2023-03-11T21:02:40.725Z,1.40
2023-03-11T21:05:09.928Z,1.40
2023-03-11T21:07:36.891Z,1.30
2023-03-11T21:10:06.635Z,1.30
2023-03-11T21:12:33.814Z,1.30
2023-03-11T21:15:01.016Z,1.20
2023-03-11T21:17:28.657Z,1.20
2023-03-11T21:19:56.001Z,1.10
2023-03-11T21:22:22.986Z,1.10
2023-03-11T21:24:54.177Z,1.00
2023-03-11T21:27:26.201Z,1.00
2023-03-11T21:29:57.286Z,0.90
2023-03-11T21:32:26.241Z,0.90
2023-03-11T21:34:57.819Z,0.80
2023-03-11T21:37:25.413Z,0.80
2023-03-11T21:39:52.832Z,0.80
2023-03-11T21:42:20.211Z,0.80
2023-03-11T21:44:47.722Z,0.70
2023-03-11T21:47:14.658Z,0.70
2023-03-11T21:49:41.764Z,0.60
2023-03-11T21:52:08.941Z,0.60
2023-03-11T21:54:36.287Z,0.60
2023-03-11T21:57:03.429Z,0.60
2023-03-11T21:59:31.380Z,0.60
2023-03-11T22:02:02.733Z,0.60
2023-03-11T22:04:30.917Z,0.60
2023-03-11T22:06:57.994Z,0.60
2023-03-11T22:09:26.272Z,0.60
2023-03-11T22:11:53.813Z,0.60
2023-03-11T22:14:20.862Z,0.60
2023-03-11T22:16:48.157Z,0.60
2023-03-11T22:19:15.121Z,0.50
2023-03-11T22:21:42.443Z,0.50
2023-03-11T22:24:09.907Z,0.60
2023-03-11T22:26:36.930Z,0.50
2023-03-11T22:29:04.286Z,0.60
2023-03-11T22:31:31.675Z,0.60
2023-03-11T22:33:58.886Z,0.70
2023-03-11T22:36:25.868Z,0.80
2023-03-11T22:38:52.795Z,0.80
2023-03-11T22:41:20.398Z,0.90
2023-03-11T22:43:47.739Z,0.90
2023-03-11T22:46:14.862Z,0.90
2023-03-11T22:48:42.189Z,0.90
2023-03-11T22:51:09.840Z,0.90
2023-03-11T22:53:36.833Z,0.90
2023-03-11T22:56:11.973Z,0.90
2023-03-11T22:58:39.440Z,0.90
2023-03-11T23:01:07.217Z,0.90
2023-03-11T23:03:35.337Z,1.00
2023-03-11T23:06:05.647Z,1.00
2023-03-11T23:08:32.793Z,1.00
2023-03-11T23:11:04.673Z,1.00
2023-03-11T23:13:32.401Z,1.00
2023-03-11T23:16:04.655Z,1.10
2023-03-11T23:18:31.603Z,1.10
2023-03-11T23:20:58.805Z,1.10
2023-03-11T23:23:25.838Z,1.20
2023-03-11T23:25:53.330Z,1.20
2023-03-11T23:28:20.580Z,1.20
2023-03-11T23:30:47.726Z,1.30
2023-03-11T23:33:14.668Z,1.30
2023-03-11T23:35:42.896Z,1.30
2023-03-11T23:38:09.979Z,1.30
2023-03-11T23:40:36.958Z,1.30
2023-03-11T23:43:04.018Z,1.20
2023-03-11T23:45:30.908Z,1.20
2023-03-11T23:47:57.768Z,1.20
2023-03-11T23:50:24.701Z,1.20
2023-03-11T23:52:51.681Z,1.20
2023-03-11T23:55:18.744Z,1.20
2023-03-11T23:57:45.613Z,1.20
